Time;durP1;ratioP1;P1;durP2;ratioP2;P2;SDS_P1;SDS_P2;PMS_P1;PMS_P2;Temp;Humidity;BMP_temperature;BMP_pressure;BME280_temperature;BME280_humidity;BME280_pressure;Samples;Min_cycle;Max_cycle;Signal;HPM_P1;HPM_P2
2022/06/21 00:00:37;;;;;;;19.92;10.32;;;13.00;82.80;;;;;;5045243;28;20078;-84
2022/06/21 00:03:09;;;;;;;15.23;9.90;;;13.00;83.00;;;;;;5037640;28;20048;-82
2022/06/21 00:05:41;;;;;;;16.70;10.38;;;13.00;82.90;;;;;;5042002;28;20045;-84
2022/06/21 00:08:13;;;;;;;15.95;10.18;;;13.00;82.70;;;;;;5041462;28;20041;-81
2022/06/21 00:10:38;;;;;;;14.48;10.40;;;12.90;82.80;;;;;;5026534;28;20461;-82
2022/06/21 00:13:21;;;;;;;17.10;10.52;;;12.90;82.80;;;;;;5021934;28;20047;-82
2022/06/21 00:15:48;;;;;;;14.60;10.48;;;12.90;82.90;;;;;;5038977;28;20506;-82
2022/06/21 00:18:17;;;;;;;17.40;11.07;;;12.80;83.20;;;;;;5044966;28;20476;-83
2022/06/21 00:20:44;;;;;;;20.05;10.82;;;12.90;83.20;;;;;;5028025;28;20037;-82
2022/06/21 00:23:14;;;;;;;18.25;11.20;;;12.80;83.40;;;;;;5027294;28;20512;-81
2022/06/21 00:25:41;;;;;;;16.67;10.27;;;12.80;83.50;;;;;;5044764;28;20106;-84
2022/06/21 00:28:07;;;;;;;15.95;10.20;;;12.80;83.50;;;;;;5025845;28;20040;-83
2022/06/21 00:30:32;;;;;;;17.27;11.38;;;12.80;83.60;;;;;;5044881;28;20100;-82
2022/06/21 00:32:58;;;;;;;17.13;11.35;;;12.70;83.70;;;;;;5022592;28;20077;-82
2022/06/21 00:35:25;;;;;;;19.52;11.63;;;12.70;83.70;;;;;;5042401;28;20040;-83
2022/06/21 00:37:53;;;;;;;15.77;10.90;;;12.80;83.70;;;;;;5044821;28;20033;-84
2022/06/21 00:40:26;;;;;;;19.35;10.18;;;12.70;83.70;;;;;;5041749;28;20094;-82
2022/06/21 00:43:09;;;;;;;16.13;11.32;;;12.70;83.50;;;;;;5049861;28;20025;-82
2022/06/21 00:45:39;;;;;;;16.67;10.13;;;12.70;83.60;;;;;;5047967;28;20036;-83
2022/06/21 00:48:26;;;;;;;17.45;10.00;;;12.70;83.40;;;;;;5053410;28;20041;-83
2022/06/21 00:50:56;;;;;;;14.88;10.02;;;12.60;83.30;;;;;;5049617;28;20037;-85
2022/06/21 00:53:31;;;;;;;17.00;10.98;;;12.70;83.40;;;;;;5048437;28;20361;-82
2022/06/21 00:56:25;;;;;;;17.60;10.75;;;12.60;83.30;;;;;;5043585;28;20033;-82
2022/06/21 00:58:50;;;;;;;16.20;10.98;;;12.70;83.10;;;;;;5048392;28;20082;-82
2022/06/21 01:01:26;;;;;;;17.08;11.45;;;12.60;83.20;;;;;;5029259;28;20442;-82
2022/06/21 01:03:56;;;;;;;16.45;10.98;;;12.60;83.30;;;;;;5045990;28;20057;-82
2022/06/21 01:06:27;;;;;;;18.42;11.57;;;12.60;83.40;;;;;;5032307;28;20033;-81
2022/06/21 01:09:27;;;;;;;15.43;11.00;;;12.50;83.60;;;;;;5048632;28;20060;-82
2022/06/21 01:12:14;;;;;;;16.70;12.60;;;12.50;83.90;;;;;;5047874;28;20029;-83
2022/06/21 01:14:46;;;;;;;17.45;12.30;;;12.50;84.30;;;;;;5044824;28;20048;-84
2022/06/21 01:17:12;;;;;;;20.92;14.07;;;12.40;84.40;;;;;;5061157;28;20048;-83
2022/06/21 01:19:55;;;;;;;19.27;13.82;;;12.50;84.50;;;;;;5059716;28;20068;-81
2022/06/21 01:22:34;;;;;;;24.80;15.52;;;12.40;84.80;;;;;;5066035;28;20472;-81
2022/06/21 01:25:20;;;;;;;20.48;14.70;;;12.30;85.20;;;;;;5062614;28;20035;-82
2022/06/21 01:27:46;;;;;;;20.05;14.55;;;12.30;85.70;;;;;;5075520;28;20047;-81
2022/06/21 01:30:12;;;;;;;21.45;14.23;;;12.20;85.80;;;;;;5064305;28;20610;-81
2022/06/21 01:32:38;;;;;;;23.35;16.23;;;12.20;86.30;;;;;;5070965;28;20064;-82
2022/06/21 01:35:19;;;;;;;25.75;17.50;;;12.10;86.40;;;;;;5069885;28;20700;-84
2022/06/21 01:37:45;;;;;;;25.38;16.95;;;12.10;86.60;;;;;;5047111;28;20633;-82
2022/06/21 01:40:17;;;;;;;24.63;16.45;;;12.10;86.80;;;;;;5064124;28;20488;-81
2022/06/21 01:42:54;;;;;;;23.75;17.58;;;12.10;86.90;;;;;;5066731;28;20465;-81
2022/06/21 01:45:33;;;;;;;21.27;16.73;;;12.00;87.10;;;;;;5065380;28;20044;-84
2022/06/21 01:48:05;;;;;;;21.98;15.85;;;12.00;87.20;;;;;;5067286;28;20037;-82
2022/06/21 01:50:34;;;;;;;23.65;16.77;;;11.90;87.20;;;;;;5061103;28;20036;-82
2022/06/21 01:53:02;;;;;;;21.95;14.88;;;11.90;87.40;;;;;;5049726;28;20564;-82
2022/06/21 01:55:40;;;;;;;24.17;18.08;;;11.90;87.50;;;;;;5072501;28;20325;-81
2022/06/21 01:58:09;;;;;;;23.08;16.38;;;11.90;87.20;;;;;;5062659;28;20048;-81
2022/06/21 02:00:38;;;;;;;26.75;16.02;;;11.80;87.20;;;;;;5069908;28;20055;-82
2022/06/21 02:03:12;;;;;;;22.30;15.40;;;11.80;87.40;;;;;;5065585;28;20040;-83
2022/06/21 02:05:43;;;;;;;26.70;17.85;;;11.80;87.50;;;;;;5065103;28;20052;-82
2022/06/21 02:08:12;;;;;;;25.35;17.48;;;11.70;87.60;;;;;;5046972;28;20143;-82
2022/06/21 02:10:46;;;;;;;24.27;15.88;;;11.70;87.60;;;;;;5062411;28;20055;-83
2022/06/21 02:13:29;;;;;;;23.42;16.20;;;11.70;87.60;;;;;;5045268;28;20029;-83
2022/06/21 02:16:18;;;;;;;21.80;15.90;;;11.80;87.50;;;;;;5064778;28;20043;-85
2022/06/21 02:18:50;;;;;;;18.85;14.82;;;11.70;87.40;;;;;;5073177;28;20462;-82
2022/06/21 02:21:45;;;;;;;26.02;15.98;;;11.80;87.30;;;;;;5066646;28;20510;-83
2022/06/21 02:24:14;;;;;;;24.33;16.67;;;11.70;86.60;;;;;;5041869;28;20036;-83
2022/06/21 02:26:40;;;;;;;24.88;16.85;;;11.50;86.70;;;;;;5068839;28;20506;-81
2022/06/21 02:29:08;;;;;;;23.63;17.50;;;11.40;87.10;;;;;;5047503;28;20483;-82
2022/06/21 02:31:34;;;;;;;23.92;16.52;;;11.40;87.70;;;;;;5062053;28;20036;-82
2022/06/21 02:34:04;;;;;;;26.02;17.30;;;11.40;87.80;;;;;;5061286;28;20052;-86
2022/06/21 02:36:37;;;;;;;21.00;15.95;;;11.40;87.90;;;;;;5040396;28;20085;-84
2022/06/21 02:39:05;;;;;;;23.58;17.20;;;11.50;88.00;;;;;;5057191;28;20059;-82
2022/06/21 02:41:39;;;;;;;21.05;16.25;;;11.50;88.10;;;;;;5057324;28;20081;-83
2022/06/21 02:44:16;;;;;;;23.17;16.77;;;11.60;87.90;;;;;;5043468;28;20546;-84
2022/06/21 02:46:46;;;;;;;22.33;17.17;;;11.60;87.70;;;;;;5059138;28;20559;-82
2022/06/21 02:49:17;;;;;;;23.85;16.33;;;11.60;87.70;;;;;;5045695;28;20066;-82
2022/06/21 02:51:56;;;;;;;22.60;16.35;;;11.60;87.70;;;;;;5064032;28;20035;-81
2022/06/21 02:54:25;;;;;;;23.02;17.38;;;11.60;87.40;;;;;;5057918;28;20047;-84
2022/06/21 02:57:22;;;;;;;20.42;15.68;;;11.60;87.20;;;;;;5058343;28;20048;-81
2022/06/21 02:59:51;;;;;;;21.85;16.33;;;11.60;87.10;;;;;;5039947;28;20040;-82
2022/06/21 03:02:22;;;;;;;21.30;16.08;;;11.60;87.00;;;;;;5044614;28;20453;-86
2022/06/21 03:04:49;;;;;;;19.75;16.17;;;11.60;86.90;;;;;;5042126;28;20503;-84
2022/06/21 03:07:53;;;;;;;23.60;16.45;;;11.60;86.80;;;;;;5044708;28;20032;-83
2022/06/21 03:10:28;;;;;;;22.33;16.25;;;11.60;86.40;;;;;;5019359;28;20056;-84
2022/06/21 03:13:05;;;;;;;20.27;15.00;;;11.60;86.40;;;;;;5060067;28;20044;-86
2022/06/21 03:15:31;;;;;;;18.23;14.65;;;11.60;86.20;;;;;;5039978;28;20361;-81
2022/06/21 03:18:22;;;;;;;19.15;15.65;;;11.60;86.20;;;;;;5059298;28;20094;-80
2022/06/21 03:20:48;;;;;;;19.27;15.55;;;11.60;86.20;;;;;;5060325;28;20037;-81
2022/06/21 03:23:15;;;;;;;20.33;15.88;;;11.60;86.20;;;;;;5060331;28;20082;-80
2022/06/21 03:25:46;;;;;;;20.75;16.50;;;11.60;86.20;;;;;;5062908;28;20400;-81
2022/06/21 03:28:22;;;;;;;22.23;16.95;;;11.60;86.10;;;;;;5047177;28;20036;-81
2022/06/21 03:30:52;;;;;;;22.27;16.02;;;11.60;86.10;;;;;;5047282;28;20036;-81
2022/06/21 03:33:18;;;;;;;23.35;17.58;;;11.60;86.20;;;;;;5065175;28;20033;-80
2022/06/21 03:35:44;;;;;;;21.27;16.55;;;11.50;86.20;;;;;;5058520;28;20054;-81
2022/06/21 03:38:10;;;;;;;20.58;17.40;;;11.50;86.30;;;;;;5060873;28;20036;-81
2022/06/21 03:43:26;;;;;;;;;;;11.60;86.60;;;;;;5063098;28;20993;-81
2022/06/21 03:45:54;;;;;;;24.13;17.70;;;11.60;86.50;;;;;;5047558;28;19916;-82
2022/06/21 03:49:01;;;;;;;21.70;15.82;;;11.60;86.50;;;;;;5063707;28;20028;-81
2022/06/21 03:51:32;;;;;;;21.42;15.73;;;11.70;86.40;;;;;;4965337;28;20125;-81
2022/06/21 03:54:12;;;;;;;23.70;16.75;;;11.70;86.20;;;;;;4961350;28;20493;-81
2022/06/21 03:56:44;;;;;;;24.95;17.27;;;11.80;86.10;;;;;;5013377;28;20153;-81
2022/06/21 03:59:22;;;;;;;24.77;16.38;;;11.80;85.40;;;;;;5039412;28;20033;-81
2022/06/21 04:02:15;;;;;;;19.00;15.95;;;11.80;85.50;;;;;;5053769;28;20070;-83
2022/06/21 04:04:55;;;;;;;21.55;15.45;;;11.80;85.40;;;;;;5055303;28;20036;-85
2022/06/21 04:07:44;;;;;;;22.50;15.35;;;12.00;85.10;;;;;;5052436;28;20067;-81
2022/06/21 04:10:16;;;;;;;21.15;16.40;;;12.10;84.70;;;;;;5055055;28;20079;-82
2022/06/21 04:12:53;;;;;;;22.33;17.38;;;12.10;84.40;;;;;;5055094;28;20120;-81
2022/06/21 04:15:31;;;;;;;24.45;17.33;;;12.10;84.40;;;;;;5056836;28;20048;-80
2022/06/21 04:18:05;;;;;;;27.98;19.35;;;12.10;84.80;;;;;;5060749;28;20041;-81
2022/06/21 04:20:34;;;;;;;25.35;20.05;;;12.00;85.70;;;;;;5043458;28;20502;-83
2022/06/21 04:23:12;;;;;;;36.80;21.50;;;12.00;86.20;;;;;;5048584;28;20052;-83
2022/06/21 04:25:52;;;;;;;29.77;21.73;;;11.90;86.40;;;;;;5063267;28;20036;-86
2022/06/21 04:28:23;;;;;;;24.50;19.23;;;11.90;87.00;;;;;;5060701;28;20028;-82
2022/06/21 04:31:20;;;;;;;29.58;20.83;;;12.00;87.00;;;;;;5059320;28;20467;-80
2022/06/21 04:34:15;;;;;;;31.77;23.58;;;12.10;86.60;;;;;;5045116;28;20127;-81
2022/06/21 04:36:50;;;;;;;29.55;21.33;;;12.10;86.40;;;;;;5058904;28;20032;-85
2022/06/21 04:39:15;;;;;;;;;;;12.20;86.40;;;;;;5060646;28;20048;-84
2022/06/21 04:41:47;;;;;;;29.13;20.35;;;12.30;86.30;;;;;;5055567;28;19951;-84
2022/06/21 04:44:39;;;;;;;28.40;20.35;;;12.20;86.00;;;;;;5058852;28;20100;-80
2022/06/21 04:47:14;;;;;;;25.23;19.75;;;12.20;86.00;;;;;;5054883;28;20032;-83
2022/06/21 04:50:16;;;;;;;27.88;20.52;;;12.30;86.00;;;;;;5078607;28;20021;-85
2022/06/21 04:52:52;;;;;;;29.02;20.58;;;12.40;86.00;;;;;;5058764;28;20060;-84
2022/06/21 04:55:25;;;;;;;33.25;21.85;;;12.50;85.90;;;;;;5073951;28;20112;-80
2022/06/21 04:57:50;;;;;;;29.15;21.17;;;12.40;86.20;;;;;;5059433;28;20048;-81
2022/06/21 05:00:19;;;;;;;26.08;20.15;;;12.50;86.60;;;;;;5058510;28;20029;-80
2022/06/21 05:02:57;;;;;;;25.80;19.98;;;12.70;86.60;;;;;;5057378;28;20553;-80
2022/06/21 05:05:31;;;;;;;28.52;19.58;;;13.00;86.00;;;;;;5043773;28;20048;-82
2022/06/21 05:08:14;;;;;;;23.05;19.30;;;13.40;86.10;;;;;;5059743;28;20670;-80
2022/06/21 05:10:47;;;;;;;22.65;15.88;;;14.80;84.60;;;;;;5055986;28;20067;-80
2022/06/21 05:13:24;;;;;;;25.45;14.77;;;16.30;77.20;;;;;;5033280;28;20372;-81
2022/06/21 05:15:52;;;;;;;21.70;13.30;;;17.20;71.00;;;;;;5051846;28;20033;-81
2022/06/21 05:18:24;;;;;;;17.00;12.52;;;17.70;69.30;;;;;;5042179;28;20067;-81
2022/06/21 05:20:57;;;;;;;17.60;12.13;;;18.60;67.30;;;;;;5065872;28;20029;-79
2022/06/21 05:23:24;;;;;;;16.77;10.63;;;19.70;63.50;;;;;;5062888;28;20041;-82
2022/06/21 05:25:51;;;;;;;16.38;11.60;;;20.10;61.50;;;;;;5058196;28;20493;-83
2022/06/21 05:28:38;;;;;;;13.98;9.75;;;19.80;60.60;;;;;;5060958;28;20094;-84
2022/06/21 05:31:20;;;;;;;21.05;12.32;;;19.70;61.30;;;;;;5061891;28;20229;-81
2022/06/21 05:33:49;;;;;;;18.67;11.90;;;19.00;61.80;;;;;;5042719;28;20649;-81
2022/06/21 05:36:26;;;;;;;18.13;11.75;;;18.90;62.00;;;;;;5059999;28;20368;-84
2022/06/21 05:38:56;;;;;;;17.88;11.82;;;18.60;64.70;;;;;;5043371;28;20119;-81
2022/06/21 05:41:29;;;;;;;20.75;12.80;;;18.70;63.70;;;;;;5058234;28;20044;-80
2022/06/21 05:43:59;;;;;;;22.83;12.68;;;18.70;63.00;;;;;;5036748;28;20040;-82
2022/06/21 05:46:28;;;;;;;19.75;12.27;;;18.10;64.50;;;;;;5044765;28;20047;-80
2022/06/21 05:48:55;;;;;;;21.23;13.30;;;17.60;67.20;;;;;;5040124;28;20056;-80
2022/06/21 05:51:32;;;;;;;25.08;14.77;;;17.30;67.90;;;;;;5043129;28;20091;-83
2022/06/21 05:54:11;;;;;;;22.40;13.85;;;17.20;69.40;;;;;;5037585;28;20041;-80
2022/06/21 05:56:39;;;;;;;24.08;14.23;;;17.20;69.70;;;;;;5038900;28;20119;-82
2022/06/21 05:59:08;;;;;;;16.85;12.32;;;17.30;68.20;;;;;;5050915;28;20583;-81
2022/06/21 06:01:54;;;;;;;18.33;13.10;;;17.10;69.20;;;;;;5044583;28;20127;-81
2022/06/21 06:04:47;;;;;;;20.30;13.20;;;16.70;70.90;;;;;;5060897;28;20052;-82
2022/06/21 06:07:29;;;;;;;17.67;12.65;;;16.30;72.00;;;;;;5041629;28;20609;-80
2022/06/21 06:09:58;;;;;;;20.35;14.18;;;16.20;73.70;;;;;;5054068;28;20032;-81
2022/06/21 06:12:30;;;;;;;19.48;13.82;;;16.00;73.80;;;;;;5043256;28;20037;-83
2022/06/21 06:15:19;;;;;;;17.52;13.55;;;15.90;74.00;;;;;;5047798;28;20095;-81
2022/06/21 06:17:55;;;;;;;23.92;15.48;;;16.10;74.30;;;;;;5053512;28;20486;-79
2022/06/21 06:20:25;;;;;;;20.92;13.95;;;16.30;73.40;;;;;;5049986;28;20036;-80
2022/06/21 06:23:06;;;;;;;17.95;13.20;;;16.30;72.70;;;;;;5054744;28;20162;-81
2022/06/21 06:25:45;;;;;;;21.20;13.07;;;16.30;72.60;;;;;;5055243;28;20488;-80
2022/06/21 06:28:30;;;;;;;18.65;14.25;;;16.10;73.20;;;;;;5042921;28;20054;-81
2022/06/21 06:31:23;;;;;;;22.75;13.85;;;16.10;73.40;;;;;;5056787;28;21216;-85
2022/06/21 06:34:00;;;;;;;21.90;13.82;;;16.10;74.30;;;;;;5020384;28;20045;-82
2022/06/21 06:36:42;;;;;;;19.58;13.80;;;16.10;74.40;;;;;;5034856;28;20025;-83
2022/06/21 06:39:25;;;;;;;19.10;14.13;;;16.30;74.10;;;;;;5043691;28;20040;-80
2022/06/21 06:42:11;;;;;;;21.73;13.38;;;16.30;73.30;;;;;;5058315;28;20569;-83
2022/06/21 06:44:43;;;;;;;19.95;13.25;;;16.30;74.10;;;;;;5057514;28;20480;-83
2022/06/21 06:47:14;;;;;;;20.63;13.40;;;16.60;74.00;;;;;;5047138;28;20051;-85
2022/06/21 06:49:56;;;;;;;19.05;14.05;;;16.70;72.80;;;;;;5038899;28;20033;-81
2022/06/21 06:52:28;;;;;;;18.10;12.63;;;17.00;72.30;;;;;;5059389;28;20076;-81
2022/06/21 06:55:13;;;;;;;19.95;13.25;;;17.20;72.40;;;;;;5041942;28;20068;-81
2022/06/21 06:57:46;;;;;;;20.35;13.18;;;17.30;71.70;;;;;;5048964;28;20055;-82
2022/06/21 07:00:17;;;;;;;20.75;13.57;;;17.60;70.40;;;;;;5053125;28;20483;-81
2022/06/21 07:02:51;;;;;;;18.90;13.20;;;17.80;69.50;;;;;;5042558;28;20078;-83
2022/06/21 07:05:27;;;;;;;20.98;13.68;;;18.10;69.90;;;;;;5050762;28;20048;-85
2022/06/21 07:07:57;;;;;;;19.00;12.15;;;18.20;68.60;;;;;;5037499;28;20041;-82
2022/06/21 07:10:26;;;;;;;20.75;12.63;;;18.30;68.00;;;;;;5042231;28;20412;-82
2022/06/21 07:12:54;;;;;;;16.80;11.73;;;18.50;67.20;;;;;;5044056;28;20140;-82
2022/06/21 07:15:25;;;;;;;18.50;10.68;;;18.40;66.40;;;;;;5041152;28;20037;-83
2022/06/21 07:17:56;;;;;;;20.17;12.07;;;18.30;67.60;;;;;;5048194;28;20040;-82
2022/06/21 07:20:42;;;;;;;18.80;11.93;;;18.10;67.70;;;;;;5062275;28;20041;-82
2022/06/21 07:23:13;;;;;;;19.02;11.38;;;18.20;67.90;;;;;;5062955;28;20067;-82
2022/06/21 07:25:44;;;;;;;20.17;11.13;;;17.90;68.70;;;;;;5065035;28;20123;-84
2022/06/21 07:28:23;;;;;;;18.85;10.43;;;17.70;69.00;;;;;;5057155;28;20025;-83
2022/06/21 07:30:52;;;;;;;18.52;10.27;;;17.80;69.30;;;;;;5043462;28;20538;-84
2022/06/21 07:33:29;;;;;;;20.10;8.98;;;17.80;67.80;;;;;;5055390;28;20071;-85
2022/06/21 07:36:15;;;;;;;12.07;8.65;;;17.80;68.20;;;;;;5041223;28;20093;-81
2022/06/21 07:38:56;;;;;;;17.02;10.23;;;17.80;68.40;;;;;;5044079;28;20372;-81
2022/06/21 07:41:31;;;;;;;16.45;8.48;;;17.80;68.20;;;;;;5045493;28;20032;-80
2022/06/21 07:44:03;;;;;;;16.60;8.70;;;17.80;67.80;;;;;;5040094;28;20049;-81
2022/06/21 07:46:38;;;;;;;15.02;9.07;;;18.10;67.50;;;;;;5046097;28;20071;-84
2022/06/21 07:49:35;;;;;;;14.77;8.52;;;18.20;67.30;;;;;;5058569;28;20115;-83
2022/06/21 07:52:22;;;;;;;14.43;8.25;;;18.20;66.20;;;;;;5033372;28;20049;-81
2022/06/21 07:54:55;;;;;;;12.65;7.60;;;18.40;66.20;;;;;;5052673;28;20122;-82
2022/06/21 07:57:26;;;;;;;12.60;7.07;;;18.60;66.30;;;;;;5049314;28;20039;-82
2022/06/21 08:00:06;;;;;;;12.15;6.82;;;18.50;64.40;;;;;;5032574;28;20470;-81
2022/06/21 08:08:41;;;;;;;11.98;6.30;;;19.10;61.70;;;;;;5057190;28;20889;-82
2022/06/21 08:11:20;;;;;;;13.40;7.15;;;19.40;61.00;;;;;;5049457;28;20431;-81
2022/06/21 08:13:46;;;;;;;14.00;6.50;;;19.30;60.40;;;;;;5043536;28;20049;-84
2022/06/21 08:16:18;;;;;;;12.45;5.93;;;19.60;60.80;;;;;;5055187;28;20543;-82
2022/06/21 08:18:55;;;;;;;14.13;6.45;;;19.90;60.60;;;;;;5034360;28;20116;-83
2022/06/21 08:21:25;;;;;;;11.98;6.25;;;20.10;58.80;;;;;;5053602;28;20041;-81
2022/06/21 08:24:03;;;;;;;11.98;6.93;;;20.40;58.30;;;;;;5056989;28;20488;-80
2022/06/21 08:27:04;;;;;;;13.52;6.65;;;20.60;57.60;;;;;;5043504;28;20037;-84
2022/06/21 08:29:39;;;;;;;11.90;6.47;;;20.20;57.70;;;;;;5059339;28;20063;-83
2022/06/21 08:32:11;;;;;;;10.55;6.82;;;20.00;58.20;;;;;;5059570;28;20047;-83
2022/06/21 08:34:45;;;;;;;12.98;6.43;;;19.80;59.20;;;;;;5057538;28;20052;-82
2022/06/21 08:37:27;;;;;;;11.85;5.80;;;19.90;57.90;;;;;;5061151;28;20033;-83
2022/06/21 08:40:05;;;;;;;11.65;6.53;;;20.10;57.80;;;;;;5060250;28;20048;-82
2022/06/21 08:42:49;;;;;;;10.82;5.80;;;20.50;57.70;;;;;;5054916;28;20126;-82
2022/06/21 08:45:41;;;;;;;12.30;6.63;;;20.60;56.40;;;;;;5060208;28;20045;-84
2022/06/21 08:48:31;;;;;;;10.88;5.90;;;20.40;57.10;;;;;;5060298;28;20074;-83
2022/06/21 08:51:03;;;;;;;13.98;6.05;;;20.50;56.30;;;;;;5059073;28;20524;-82
2022/06/21 08:53:55;;;;;;;9.18;5.72;;;20.40;57.30;;;;;;5058473;28;20446;-83
2022/06/21 08:56:36;;;;;;;11.15;6.20;;;20.50;57.20;;;;;;5057781;28;20563;-84
2022/06/21 08:59:33;;;;;;;13.38;5.88;;;20.60;55.90;;;;;;5060529;28;20039;-83
2022/06/21 09:01:58;;;;;;;11.27;5.65;;;20.60;56.90;;;;;;5041421;28;20499;-83
2022/06/21 09:04:29;;;;;;;12.18;6.10;;;20.70;55.50;;;;;;5062511;28;20064;-82
2022/06/21 09:07:30;;;;;;;10.30;6.13;;;20.50;55.60;;;;;;5060638;28;20029;-84
2022/06/21 09:10:16;;;;;;;12.30;6.32;;;20.30;56.50;;;;;;5058424;28;20085;-84
2022/06/21 09:12:51;;;;;;;12.55;5.68;;;20.30;55.20;;;;;;5059504;28;20394;-83
2022/06/21 09:15:27;;;;;;;12.73;5.65;;;20.10;56.70;;;;;;5043957;28;20049;-84
2022/06/21 09:18:41;;;;;;;10.25;5.97;;;20.20;56.60;;;;;;5040641;28;20044;-83
2022/06/21 09:21:17;;;;;;;14.27;6.60;;;20.50;56.50;;;;;;4965285;28;20375;-82
2022/06/21 09:24:13;;;;;;;11.60;6.22;;;20.20;55.50;;;;;;4967953;28;20042;-85
2022/06/21 09:27:03;;;;;;;12.13;5.70;;;20.30;55.70;;;;;;5029071;28;20576;-83
2022/06/21 09:29:54;;;;;;;12.32;6.63;;;20.60;56.50;;;;;;5062525;28;20036;-82
2022/06/21 09:32:49;;;;;;;13.05;6.68;;;20.50;55.70;;;;;;5060009;28;20042;-83
2022/06/21 09:35:22;;;;;;;10.95;6.07;;;20.10;57.40;;;;;;5041855;28;20041;-83
2022/06/21 09:38:06;;;;;;;10.02;6.22;;;20.30;58.70;;;;;;5045176;28;20075;-85
2022/06/21 09:40:55;;;;;;;12.07;6.85;;;20.50;56.00;;;;;;5053241;28;20389;-83
2022/06/21 09:43:21;;;;;;;17.63;6.75;;;20.10;56.90;;;;;;5063499;28;20048;-83
2022/06/21 09:45:53;;;;;;;12.35;6.30;;;20.10;56.90;;;;;;5062577;28;20454;-83
2022/06/21 09:49:12;;;;;;;14.07;7.05;;;20.40;56.10;;;;;;5055891;28;20377;-83
2022/06/21 09:51:58;;;;;;;14.07;6.90;;;20.60;56.10;;;;;;4977443;28;20064;-83
2022/06/21 09:54:36;;;;;;;14.52;6.95;;;20.60;55.10;;;;;;5046966;28;20048;-83
2022/06/21 09:57:20;;;;;;;12.02;6.50;;;20.60;55.60;;;;;;5042857;28;20052;-83
2022/06/21 10:00:07;;;;;;;14.87;6.50;;;20.70;56.20;;;;;;5047441;28;20391;-82
2022/06/21 10:03:20;;;;;;;13.13;6.85;;;20.60;54.20;;;;;;5052358;28;20116;-85
2022/06/21 10:05:59;;;;;;;12.85;6.82;;;20.20;55.70;;;;;;5029657;28;20040;-83
2022/06/21 10:08:43;;;;;;;10.85;7.10;;;20.20;57.30;;;;;;5036773;28;20090;-83
2022/06/21 10:11:33;;;;;;;14.98;6.85;;;20.40;56.80;;;;;;5041398;28;20085;-84
2022/06/21 10:14:24;;;;;;;12.40;6.63;;;20.60;55.40;;;;;;5053900;28;20430;-82
2022/06/21 10:17:22;;;;;;;16.63;6.75;;;20.80;56.10;;;;;;5064154;28;20119;-83
2022/06/21 10:20:07;;;;;;;12.20;5.85;;;20.80;54.50;;;;;;5057401;28;20480;-84
2022/06/21 10:22:50;;;;;;;14.45;6.15;;;20.60;54.80;;;;;;5058696;28;20078;-83
2022/06/21 10:25:33;;;;;;;12.13;5.75;;;20.10;55.80;;;;;;5058792;28;20059;-84
2022/06/21 10:28:33;;;;;;;10.77;5.80;;;20.00;55.20;;;;;;5059976;28;20041;-84
2022/06/21 10:31:17;;;;;;;12.20;5.78;;;19.80;55.10;;;;;;4988708;28;20704;-82
2022/06/21 10:33:58;;;;;;;13.43;6.13;;;20.00;56.00;;;;;;5053347;28;20040;-85
2022/06/21 10:36:45;;;;;;;10.45;5.78;;;20.50;55.50;;;;;;5054149;28;20302;-83
2022/06/21 10:39:32;;;;;;;11.48;5.97;;;20.80;54.10;;;;;;5051984;28;20041;-82
2022/06/21 10:45:22;;;;;;;16.27;6.38;;;21.00;53.10;;;;;;5048490;28;20043;-84
2022/06/21 10:48:06;;;;;;;12.90;6.43;;;20.80;53.30;;;;;;5057869;28;20068;-86
2022/06/21 10:51:06;;;;;;;12.50;6.60;;;20.80;53.00;;;;;;5064389;28;20092;-85
2022/06/21 10:54:08;;;;;;;14.57;7.15;;;20.60;55.00;;;;;;5077700;28;20100;-85
2022/06/21 10:57:12;;;;;;;12.10;6.78;;;20.30;54.00;;;;;;5055898;28;20517;-82
2022/06/21 11:02:56;;;;;;;11.98;6.80;;;20.40;55.10;;;;;;5061603;28;20040;-83
2022/06/21 11:05:58;;;;;;;9.27;5.75;;;20.20;54.10;;;;;;5047635;28;20044;-82
2022/06/21 11:08:55;;;;;;;12.38;6.35;;;20.00;54.70;;;;;;5037472;28;20450;-83
2022/06/21 11:11:27;;;;;;;12.75;6.55;;;20.60;52.90;;;;;;5034609;28;21584;-84
2022/06/21 11:14:24;;;;;;;10.73;5.95;;;20.30;53.00;;;;;;5038372;28;20053;-84
2022/06/21 11:17:00;;;;;;;12.75;6.53;;;20.70;53.20;;;;;;5051966;28;20039;-83
2022/06/21 11:19:39;;;;;;;15.05;6.53;;;20.60;52.80;;;;;;5051262;28;20094;-83
2022/06/21 11:22:11;;;;;;;14.00;6.22;;;20.60;52.90;;;;;;5034752;28;20033;-83
2022/06/21 11:24:56;;;;;;;12.77;7.20;;;20.60;53.90;;;;;;5050075;28;20439;-82
2022/06/21 11:27:34;;;;;;;15.57;6.68;;;20.80;53.70;;;;;;5052340;28;20032;-83
2022/06/21 11:30:14;;;;;;;12.07;6.00;;;20.40;54.00;;;;;;5038467;28;20480;-83
2022/06/21 11:32:56;;;;;;;13.98;6.18;;;20.50;53.50;;;;;;5033714;28;20033;-83
2022/06/21 11:35:41;;;;;;;10.38;5.90;;;20.60;52.10;;;;;;5041881;28;20041;-83
2022/06/21 11:38:32;;;;;;;11.00;6.05;;;20.50;51.70;;;;;;5056928;28;20186;-81
2022/06/21 11:41:06;;;;;;;11.68;6.30;;;20.30;52.50;;;;;;5056056;28;20043;-82
2022/06/21 11:43:59;;;;;;;15.77;6.07;;;20.50;52.40;;;;;;5035503;28;20648;-81
2022/06/21 11:46:43;;;;;;;11.90;5.85;;;20.80;52.80;;;;;;5041632;28;20384;-82
2022/06/21 11:49:34;;;;;;;15.80;7.03;;;21.20;52.00;;;;;;5057732;28;20127;-83
2022/06/21 11:52:24;;;;;;;14.35;6.63;;;21.40;51.50;;;;;;5033140;28;20036;-83
2022/06/21 11:54:52;;;;;;;10.93;5.93;;;21.50;50.60;;;;;;5056650;28;20060;-82
2022/06/21 11:57:27;;;;;;;12.57;6.40;;;21.50;50.80;;;;;;5055577;28;20476;-81
2022/06/21 12:00:05;;;;;;;12.93;6.72;;;21.30;51.50;;;;;;5045852;28;20029;-82
2022/06/21 12:02:48;;;;;;;13.45;6.20;;;21.00;52.40;;;;;;5041814;28;20474;-85
2022/06/21 12:05:32;;;;;;;12.55;6.60;;;21.30;51.70;;;;;;5032558;28;20057;-85
2022/06/21 12:08:29;;;;;;;13.52;6.40;;;21.30;51.60;;;;;;5029380;28;20049;-82
2022/06/21 12:11:15;;;;;;;11.32;6.32;;;21.60;51.40;;;;;;5028167;28;20124;-84
2022/06/21 12:13:49;;;;;;;11.80;6.93;;;21.90;51.30;;;;;;5028909;28;20060;-83
2022/06/21 12:16:35;;;;;;;14.55;6.63;;;21.70;50.40;;;;;;5030170;28;20476;-84
2022/06/21 12:19:23;;;;;;;15.38;6.88;;;21.50;51.40;;;;;;5023786;28;20080;-83
2022/06/21 12:22:08;;;;;;;14.55;6.30;;;21.70;50.60;;;;;;5027782;28;20037;-84
2022/06/21 12:24:34;;;;;;;12.68;6.38;;;21.60;49.80;;;;;;5029106;28;20045;-82
2022/06/21 12:27:01;;;;;;;14.50;7.53;;;21.30;51.20;;;;;;5027646;28;20200;-83
2022/06/21 12:29:28;;;;;;;12.35;7.03;;;21.10;51.70;;;;;;5031483;28;20037;-82
2022/06/21 12:32:00;;;;;;;14.32;6.53;;;21.30;52.40;;;;;;5028842;28;20029;-84
2022/06/21 12:34:39;;;;;;;13.63;6.72;;;20.90;53.00;;;;;;5028905;28;20548;-82
2022/06/21 12:37:40;;;;;;;10.77;6.00;;;21.10;52.70;;;;;;5032438;28;20029;-82
2022/06/21 12:40:35;;;;;;;13.07;7.10;;;21.50;51.50;;;;;;5032365;28;20528;-84
2022/06/21 12:43:11;;;;;;;10.13;6.70;;;21.70;50.40;;;;;;5045715;28;20042;-84
2022/06/21 12:45:45;;;;;;;15.25;7.43;;;21.50;51.90;;;;;;5034078;28;20056;-82
2022/06/21 12:48:17;;;;;;;;;;;21.10;52.30;;;;;;5047590;28;20083;-81
2022/06/21 12:50:47;;;;;;;14.40;7.97;;;21.20;52.00;;;;;;5041240;28;20172;-84
2022/06/21 12:53:43;;;;;;;11.68;6.63;;;21.20;52.40;;;;;;5034912;28;20047;-82
2022/06/21 12:56:44;;;;;;;11.25;6.85;;;21.60;52.00;;;;;;5034570;28;20053;-83
2022/06/21 12:59:30;;;;;;;11.57;7.03;;;21.60;52.50;;;;;;5024954;28;20033;-83
2022/06/21 13:02:14;;;;;;;13.75;7.05;;;21.60;50.40;;;;;;5041509;28;20360;-84
2022/06/21 13:05:02;;;;;;;14.03;8.10;;;21.70;49.90;;;;;;5051848;28;20044;-83
2022/06/21 13:08:03;;;;;;;13.43;7.72;;;21.80;49.60;;;;;;5041244;28;20411;-82
2022/06/21 13:10:51;;;;;;;12.32;7.45;;;21.60;51.00;;;;;;5055577;28;20439;-84
2022/06/21 13:13:43;;;;;;;16.10;8.32;;;21.70;52.10;;;;;;5053538;28;20067;-85
2022/06/21 13:16:32;;;;;;;17.67;8.15;;;22.10;50.80;;;;;;5039179;28;20052;-83
2022/06/21 13:19:19;;;;;;;13.40;7.70;;;22.30;49.30;;;;;;5042206;28;20400;-82
2022/06/21 13:22:08;;;;;;;13.30;7.75;;;22.20;48.60;;;;;;5057568;28;20037;-84
2022/06/21 13:24:45;;;;;;;12.68;7.22;;;22.10;50.00;;;;;;5060390;28;20116;-84
2022/06/21 13:27:19;;;;;;;13.40;6.55;;;22.30;50.00;;;;;;5057092;28;20542;-84
2022/06/21 13:29:56;;;;;;;13.75;6.10;;;22.60;50.70;;;;;;5038392;28;20463;-85
2022/06/21 13:32:25;;;;;;;15.15;7.88;;;23.00;49.40;;;;;;5063475;28;20041;-83
2022/06/21 13:35:03;;;;;;;11.73;7.20;;;23.20;48.00;;;;;;5044144;28;20037;-85
2022/06/21 13:37:53;;;;;;;13.52;8.13;;;23.30;46.90;;;;;;5041978;28;20051;-83
2022/06/21 13:40:25;;;;;;;12.13;7.03;;;23.00;47.40;;;;;;5041549;28;20028;-83
2022/06/21 13:43:11;;;;;;;14.55;8.15;;;23.10;47.30;;;;;;5059727;28;20089;-84
2022/06/21 13:45:52;;;;;;;10.10;6.45;;;23.10;47.80;;;;;;5036910;28;20080;-83